createdAt,value
2019-02-28T00:01:04.461Z,25.63
2019-02-28T00:03:08.371Z,25.53
2019-02-28T00:05:12.259Z,24.23
2019-02-28T00:07:17.968Z,27.43
2019-02-28T00:09:21.715Z,27.27
2019-02-28T00:11:25.609Z,27.17
2019-02-28T00:13:29.619Z,26.37
2019-02-28T00:15:33.483Z,28.33
2019-02-28T00:17:42.565Z,26.20
2019-02-28T00:19:43.049Z,26.17
2019-02-28T00:21:46.877Z,27.33
2019-02-28T00:23:56.416Z,27.17
2019-02-28T00:25:56.349Z,27.50
2019-02-28T00:28:00.190Z,27.27
2019-02-28T00:30:06.038Z,27.27
2019-02-28T00:32:10.694Z,28.33
2019-02-28T00:34:14.573Z,25.77
2019-02-28T00:36:19.253Z,27.23
2019-02-28T00:38:23.721Z,27.87
2019-02-28T00:40:27.641Z,27.47
2019-02-28T00:42:31.558Z,29.60
2019-02-28T00:44:35.414Z,27.50
2019-02-28T00:46:44.063Z,26.00
2019-02-28T00:48:44.807Z,27.47
2019-02-28T00:50:48.674Z,29.60
2019-02-28T00:52:52.584Z,29.03
2019-02-28T00:54:56.457Z,28.87
2019-02-28T00:57:00.319Z,28.83
2019-02-28T00:59:04.236Z,30.20
2019-02-28T01:01:08.459Z,28.70
2019-02-28T01:03:13.642Z,29.93
2019-02-28T01:05:17.973Z,29.77
2019-02-28T01:07:21.793Z,31.87
2019-02-28T01:09:27.077Z,29.67
2019-02-28T01:11:31.236Z,29.77
2019-02-28T01:13:35.115Z,30.23
2019-02-28T01:15:44.478Z,31.33
2019-02-28T01:17:44.561Z,29.20
2019-02-28T01:19:48.453Z,32.07
2019-02-28T01:21:55.439Z,30.73
2019-02-28T01:24:00.669Z,30.17
2019-02-28T01:26:03.474Z,31.70
2019-02-28T01:28:07.397Z,30.33
2019-02-28T01:30:13.417Z,31.83
2019-02-28T01:32:17.382Z,30.13
2019-02-28T01:34:21.258Z,28.80
2019-02-28T01:36:25.138Z,32.13
2019-02-28T01:38:29.010Z,31.43
2019-02-28T01:40:35.168Z,30.30
2019-02-28T01:42:38.422Z,30.20
2019-02-28T01:44:42.286Z,31.63
2019-02-28T01:46:48.543Z,31.80
2019-02-28T01:48:54.535Z,32.97
2019-02-28T01:50:57.235Z,32.23
2019-02-28T01:53:01.095Z,32.37
2019-02-28T01:55:07.823Z,32.75
2019-02-28T01:57:11.673Z,30.47
2019-02-28T01:59:15.558Z,31.47
2019-02-28T02:01:19.478Z,33.27
2019-02-28T02:03:23.423Z,31.27
2019-02-28T02:05:27.291Z,31.80
2019-02-28T02:07:33.326Z,33.30
2019-02-28T02:09:36.797Z,33.10
2019-02-28T02:11:40.679Z,32.60
2019-02-28T02:13:44.561Z,31.60
2019-02-28T02:15:51.201Z,31.53
2019-02-28T02:17:54.058Z,33.57
2019-02-28T02:19:57.951Z,32.73
2019-02-28T02:22:01.977Z,31.87
2019-02-28T02:24:05.858Z,31.33
2019-02-28T02:26:11.242Z,33.53
2019-02-28T02:28:15.295Z,33.40
2019-02-28T02:30:21.962Z,32.37
2019-02-28T02:32:25.851Z,33.33
2019-02-28T02:34:29.865Z,31.67
2019-02-28T02:36:33.910Z,33.27
2019-02-28T02:38:41.555Z,31.43
2019-02-28T02:40:43.409Z,33.57
2019-02-28T02:42:49.783Z,32.47
2019-02-28T02:44:52.819Z,31.90
2019-02-28T02:46:57.011Z,31.83
2019-02-28T02:49:01.054Z,32.10
2019-02-28T02:51:10.606Z,34.37
2019-02-28T02:53:10.397Z,33.40
2019-02-28T02:55:14.930Z,33.43
2019-02-28T02:57:18.803Z,33.00
2019-02-28T02:59:22.699Z,33.17
2019-02-28T03:01:26.629Z,34.63
2019-02-28T03:03:30.495Z,35.07
2019-02-28T03:05:35.673Z,34.47
2019-02-28T03:07:39.953Z,33.60
2019-02-28T03:09:44.770Z,33.20
2019-02-28T03:11:48.872Z,33.87
2019-02-28T03:13:52.729Z,32.13
2019-02-28T03:15:59.306Z,34.03
2019-02-28T03:18:02.098Z,33.57
2019-02-28T03:20:09.076Z,32.48
2019-02-28T03:22:12.950Z,33.57
2019-02-28T03:24:16.811Z,34.13
2019-02-28T03:26:20.734Z,32.50
2019-02-28T03:28:31.399Z,33.53
2019-02-28T03:30:32.958Z,32.77
2019-02-28T03:32:41.870Z,34.13
2019-02-28T03:34:41.145Z,34.10
2019-02-28T03:36:55.157Z,35.03
2019-02-28T03:38:50.640Z,34.03
2019-02-28T03:40:54.518Z,35.07
2019-02-28T03:43:05.484Z,33.77
2019-02-28T03:45:05.302Z,33.67
2019-02-28T03:47:09.203Z,33.90
2019-02-28T03:49:13.134Z,35.50
2019-02-28T03:51:16.997Z,32.80
2019-02-28T03:53:21.105Z,33.83
2019-02-28T03:55:26.111Z,34.00
2019-02-28T03:57:30.003Z,35.50
2019-02-28T03:59:33.902Z,34.30
2019-02-28T04:01:44.558Z,35.70
2019-02-28T04:03:43.356Z,34.40
2019-02-28T04:05:47.235Z,35.70
2019-02-28T04:07:53.569Z,33.63
2019-02-28T04:09:56.620Z,37.33
2019-02-28T04:12:07.001Z,33.27
2019-02-28T04:14:06.083Z,33.30
2019-02-28T04:16:10.168Z,33.67
2019-02-28T04:18:14.270Z,35.20
2019-02-28T04:20:18.324Z,34.63
2019-02-28T04:22:23.061Z,35.90
2019-02-28T04:24:27.761Z,33.93
2019-02-28T04:26:31.637Z,36.80
2019-02-28T04:28:35.551Z,34.20
2019-02-28T04:30:43.705Z,35.60
2019-02-28T04:32:44.969Z,36.37
2019-02-28T04:34:49.822Z,33.60
2019-02-28T04:36:53.741Z,34.63
2019-02-28T04:38:57.681Z,36.63
2019-02-28T04:41:01.580Z,35.80
2019-02-28T04:43:07.212Z,35.03
2019-02-28T04:45:12.947Z,34.73
2019-02-28T04:47:16.801Z,35.87
2019-02-28T04:49:22.703Z,36.43
2019-02-28T04:51:26.341Z,38.30
2019-02-28T04:53:30.206Z,35.67
2019-02-28T04:55:34.207Z,35.87
2019-02-28T04:57:39.613Z,37.87
2019-02-28T04:59:43.515Z,37.93
2019-02-28T05:01:47.383Z,36.40
2019-02-28T05:03:52.686Z,34.77
2019-02-28T05:05:56.691Z,37.33
2019-02-28T05:08:04.649Z,36.33
2019-02-28T05:10:07.822Z,37.20
2019-02-28T05:12:11.766Z,36.23
2019-02-28T05:14:15.626Z,36.13
2019-02-28T05:16:19.469Z,37.70
2019-02-28T05:18:23.405Z,34.30
2019-02-28T05:20:27.312Z,36.60
2019-02-28T05:22:31.218Z,37.50
2019-02-28T05:24:35.096Z,35.77
2019-02-28T05:26:39.015Z,36.87
2019-02-28T05:28:42.882Z,37.07
2019-02-28T05:30:46.796Z,39.20
2019-02-28T05:32:50.722Z,36.20
2019-02-28T05:34:54.597Z,38.30
2019-02-28T05:36:58.473Z,36.63
2019-02-28T05:39:02.333Z,38.87
2019-02-28T05:41:06.216Z,38.63
2019-02-28T05:43:10.136Z,39.90
2019-02-28T05:45:14.740Z,38.80
2019-02-28T05:47:19.514Z,37.17
2019-02-28T05:49:23.431Z,38.87
2019-02-28T05:51:27.304Z,37.30
2019-02-28T05:53:31.197Z,39.93
2019-02-28T05:55:35.106Z,39.03
2019-02-28T05:57:39.415Z,36.23
2019-02-28T05:59:44.529Z,36.93
2019-02-28T06:01:48.373Z,37.33
2019-02-28T06:03:52.390Z,36.77
2019-02-28T06:05:56.294Z,36.63
2019-02-28T06:08:00.481Z,37.60
2019-02-28T06:10:09.635Z,39.05
2019-02-28T06:12:13.462Z,38.77
2019-02-28T06:14:17.324Z,37.93
2019-02-28T06:16:21.246Z,39.17
2019-02-28T06:18:27.041Z,37.00
2019-02-28T06:20:30.665Z,36.90
2019-02-28T06:22:36.265Z,37.30
2019-02-28T06:24:40.350Z,38.43
2019-02-28T06:26:44.279Z,40.33
2019-02-28T06:28:48.159Z,38.47
2019-02-28T06:30:52.046Z,38.67
2019-02-28T06:32:59.177Z,37.87
2019-02-28T06:35:01.482Z,38.60
2019-02-28T06:37:05.395Z,39.23
2019-02-28T06:39:09.234Z,40.70
2019-02-28T06:41:13.170Z,36.87
2019-02-28T06:43:18.819Z,39.63
2019-02-28T06:45:22.564Z,41.13
2019-02-28T06:47:26.454Z,39.97
2019-02-28T06:49:30.306Z,38.97
2019-02-28T06:51:34.217Z,39.60
2019-02-28T06:53:39.216Z,38.10
2019-02-28T06:55:46.507Z,40.10
2019-02-28T06:57:50.297Z,42.73
2019-02-28T06:59:54.215Z,42.30
2019-02-28T07:01:58.049Z,40.83
2019-02-28T07:04:02.002Z,42.77
2019-02-28T07:06:05.914Z,44.53
2019-02-28T07:08:09.750Z,43.47
2019-02-28T07:10:15.854Z,42.00
2019-02-28T07:12:19.685Z,42.10
2019-02-28T07:14:23.591Z,41.40
2019-02-28T07:16:30.690Z,42.40
2019-02-28T07:18:33.014Z,41.30
2019-02-28T07:20:36.902Z,42.00
2019-02-28T07:22:40.781Z,43.70
2019-02-28T07:24:44.684Z,40.17
2019-02-28T07:26:52.320Z,42.70
2019-02-28T07:28:54.097Z,44.27
2019-02-28T07:30:57.970Z,43.13
2019-02-28T07:33:01.906Z,44.67
2019-02-28T07:35:07.273Z,43.33
2019-02-28T07:37:11.300Z,42.03
2019-02-28T07:39:15.160Z,43.10
2019-02-28T07:41:20.331Z,43.40
2019-02-28T07:43:24.475Z,42.53
2019-02-28T07:45:29.598Z,42.93
2019-02-28T07:47:33.830Z,42.17
2019-02-28T07:49:37.818Z,43.77
2019-02-28T07:51:41.637Z,43.10
2019-02-28T07:53:45.511Z,44.50
2019-02-28T07:55:49.473Z,46.03
2019-02-28T07:57:56.276Z,47.23
2019-02-28T07:59:59.977Z,45.73
2019-02-28T08:02:04.109Z,47.90
2019-02-28T08:04:08.020Z,45.30
2019-02-28T08:06:11.872Z,44.37
2019-02-28T08:08:15.766Z,43.60
2019-02-28T08:10:24.488Z,45.20
2019-02-28T08:12:30.901Z,44.17
2019-02-28T08:14:33.870Z,44.93
2019-02-28T08:16:37.872Z,44.13
2019-02-28T08:18:41.760Z,45.60
2019-02-28T08:20:45.653Z,44.87
2019-02-28T08:22:49.793Z,43.50
2019-02-28T08:24:53.729Z,44.60
2019-02-28T08:26:57.659Z,45.70
2019-02-28T08:29:01.503Z,46.03
2019-02-28T08:31:05.843Z,47.50
2019-02-28T08:33:09.845Z,43.67
2019-02-28T08:35:15.147Z,44.30
2019-02-28T08:37:20.004Z,47.03
2019-02-28T08:39:24.187Z,46.70
2019-02-28T08:41:28.083Z,46.70
2019-02-28T08:43:31.935Z,46.77
2019-02-28T08:45:35.822Z,46.17
2019-02-28T08:47:39.694Z,45.07
2019-02-28T08:49:45.484Z,47.80
2019-02-28T08:51:49.141Z,49.37
2019-02-28T08:53:53.022Z,47.67
2019-02-28T08:55:56.950Z,49.90
2019-02-28T08:58:05.031Z,47.43
2019-02-28T09:00:09.334Z,46.47
2019-02-28T09:02:14.571Z,46.43
2019-02-28T09:04:18.817Z,45.77
2019-02-28T09:06:22.677Z,45.93
2019-02-28T09:08:26.575Z,45.50
2019-02-28T09:10:30.449Z,47.80
2019-02-28T09:12:34.397Z,47.10
2019-02-28T09:14:38.234Z,46.27
2019-02-28T09:16:42.139Z,46.80
2019-02-28T09:18:45.990Z,46.03
2019-02-28T09:20:49.862Z,48.77
2019-02-28T09:22:53.773Z,44.33
2019-02-28T09:24:57.623Z,47.10
2019-02-28T09:27:04.096Z,47.67
2019-02-28T09:29:07.061Z,48.10
2019-02-28T09:31:10.998Z,45.97
2019-02-28T09:33:15.006Z,48.27
2019-02-28T09:35:18.891Z,48.53
2019-02-28T09:37:22.746Z,49.50
2019-02-28T09:39:26.690Z,50.47
2019-02-28T09:41:30.547Z,47.07
2019-02-28T09:43:34.398Z,45.20
2019-02-28T09:45:39.929Z,47.77
2019-02-28T09:47:43.862Z,46.73
2019-02-28T09:49:48.014Z,48.13
2019-02-28T09:51:52.083Z,47.80
2019-02-28T09:53:55.982Z,47.10
2019-02-28T09:55:59.889Z,47.13
2019-02-28T09:58:03.832Z,48.23
2019-02-28T10:00:12.026Z,46.10
2019-02-28T10:02:16.439Z,48.50
2019-02-28T10:04:20.353Z,47.43
2019-02-28T10:06:24.207Z,49.80
2019-02-28T10:08:28.133Z,50.10
2019-02-28T10:10:32.932Z,49.63
2019-02-28T10:12:39.449Z,48.10
2019-02-28T10:14:42.324Z,48.83
2019-02-28T10:16:49.532Z,49.83
2019-02-28T10:18:51.740Z,49.40
2019-02-28T10:20:55.600Z,50.17
2019-02-28T10:22:59.504Z,51.30
2019-02-28T10:25:03.578Z,51.07
2019-02-28T10:27:09.135Z,48.37
2019-02-28T10:29:13.014Z,49.43
2019-02-28T10:31:16.926Z,49.43
2019-02-28T10:33:20.864Z,51.80
2019-02-28T10:35:24.769Z,51.03
2019-02-28T10:37:28.659Z,51.87
2019-02-28T10:39:32.544Z,53.67
2019-02-28T10:41:36.428Z,52.13
2019-02-28T10:43:40.311Z,50.50
2019-02-28T10:45:45.993Z,50.23
2019-02-28T10:47:49.705Z,50.20
2019-02-28T10:49:55.386Z,51.13
2019-02-28T10:51:59.134Z,47.53
2019-02-28T10:54:03.136Z,46.53
2019-02-28T10:56:07.022Z,47.53
2019-02-28T10:58:12.440Z,46.63
2019-02-28T11:00:20.185Z,45.00
2019-02-28T11:02:24.200Z,41.33
2019-02-28T11:04:28.070Z,44.87
2019-02-28T11:06:34.915Z,46.53
2019-02-28T11:08:38.806Z,46.43
2019-02-28T11:10:44.289Z,45.60
2019-02-28T11:12:48.192Z,43.77
2019-02-28T11:14:52.058Z,46.40
2019-02-28T11:16:59.535Z,45.40
2019-02-28T11:19:02.144Z,48.37
2019-02-28T11:21:06.024Z,49.90
2019-02-28T11:23:14.301Z,46.87
2019-02-28T11:25:18.448Z,47.83
2019-02-28T11:27:22.951Z,50.37
2019-02-28T11:29:26.965Z,49.40
2019-02-28T11:31:31.510Z,50.63
2019-02-28T11:33:36.434Z,50.33
2019-02-28T11:35:41.023Z,45.23
2019-02-28T11:37:46.079Z,47.77
2019-02-28T11:39:50.530Z,47.70
2019-02-28T11:41:54.390Z,51.70
2019-02-28T11:43:58.294Z,50.50
2019-02-28T11:46:03.118Z,49.47
2019-02-28T11:48:20.148Z,51.60
2019-02-28T11:50:23.607Z,48.00
2019-02-28T11:52:28.001Z,50.90
2019-02-28T11:54:31.965Z,48.93
2019-02-28T11:56:35.857Z,54.47
2019-02-28T11:58:39.734Z,54.10
2019-02-28T12:00:43.700Z,53.03
2019-02-28T12:02:53.279Z,54.17
2019-02-28T12:04:53.293Z,55.20
2019-02-28T12:06:57.402Z,53.60
2019-02-28T12:09:02.758Z,55.67
2019-02-28T12:11:06.684Z,57.37
2019-02-28T12:13:10.680Z,55.87
2019-02-28T12:15:20.242Z,52.27
2019-02-28T12:17:25.500Z,53.50
2019-02-28T12:19:35.972Z,52.10
2019-02-28T12:21:39.875Z,49.50
2019-02-28T12:23:43.762Z,53.53
2019-02-28T12:25:47.634Z,49.87
2019-02-28T12:27:51.567Z,47.80
2019-02-28T12:29:55.449Z,49.13
2019-02-28T12:31:59.330Z,44.17
2019-02-28T12:34:03.203Z,46.30
2019-02-28T12:36:07.088Z,45.77
2019-02-28T12:38:10.994Z,44.67
2019-02-28T12:40:17.447Z,43.53
2019-02-28T12:42:21.320Z,43.47
2019-02-28T12:44:25.233Z,43.47
2019-02-28T12:46:31.815Z,41.03
2019-02-28T12:48:34.683Z,43.80
2019-02-28T12:50:38.622Z,39.73
2019-02-28T12:52:42.451Z,40.70
2019-02-28T12:54:46.389Z,37.23
2019-02-28T12:56:50.263Z,42.70
2019-02-28T12:58:54.207Z,43.53
2019-02-28T13:01:00.035Z,42.43
2019-02-28T13:03:03.631Z,40.07
2019-02-28T13:05:14.870Z,43.10
2019-02-28T13:07:16.019Z,43.10
2019-02-28T13:09:20.029Z,40.83
2019-02-28T13:11:23.903Z,41.27
2019-02-28T13:13:28.906Z,40.17
2019-02-28T13:15:33.728Z,42.50
2019-02-28T13:17:37.581Z,42.93
2019-02-28T13:19:41.582Z,40.87
2019-02-28T13:21:46.800Z,38.73
2019-02-28T13:23:51.258Z,41.67
2019-02-28T13:25:59.128Z,43.17
2019-02-28T13:28:00.754Z,42.90
2019-02-28T13:30:10.531Z,44.03
2019-02-28T13:32:13.497Z,42.77
2019-02-28T13:34:17.758Z,41.60
2019-02-28T13:36:22.741Z,40.47
2019-02-28T13:38:26.779Z,41.50
2019-02-28T13:40:33.482Z,41.50
2019-02-28T13:42:40.734Z,41.93
2019-02-28T13:44:43.234Z,41.33
2019-02-28T13:46:47.419Z,40.73
2019-02-28T13:48:51.316Z,40.13
2019-02-28T13:50:55.478Z,39.67
2019-02-28T13:53:03.333Z,41.90
2019-02-28T13:55:06.718Z,44.10
2019-02-28T13:57:10.676Z,39.30
2019-02-28T13:59:14.571Z,39.47
2019-02-28T14:01:20.273Z,41.13
2019-02-28T14:03:25.774Z,40.90
2019-02-28T14:05:29.610Z,43.63
2019-02-28T14:07:35.435Z,40.77
2019-02-28T14:09:39.427Z,41.37
2019-02-28T14:11:45.082Z,41.27
2019-02-28T14:13:48.833Z,41.00
2019-02-28T14:15:53.264Z,39.40
2019-02-28T14:17:57.325Z,41.53
2019-02-28T14:20:01.225Z,39.23
2019-02-28T14:22:05.410Z,40.37
2019-02-28T14:24:09.326Z,38.67
2019-02-28T14:26:14.061Z,37.30
2019-02-28T14:28:19.226Z,33.63
2019-02-28T14:30:24.960Z,41.70
2019-02-28T14:32:28.841Z,40.30
2019-02-28T14:34:32.733Z,40.37
2019-02-28T14:36:36.617Z,41.47
2019-02-28T14:38:40.513Z,40.90
2019-02-28T14:40:44.406Z,43.47
2019-02-28T14:42:48.265Z,40.60
2019-02-28T14:44:52.198Z,39.63
2019-02-28T14:46:56.097Z,39.07
2019-02-28T14:48:59.963Z,42.00
2019-02-28T14:51:03.870Z,43.23
2019-02-28T14:53:13.330Z,43.67
2019-02-28T14:55:15.544Z,41.97
2019-02-28T14:57:19.501Z,36.07
2019-02-28T14:59:23.394Z,42.50
2019-02-28T15:01:27.307Z,41.73
2019-02-28T15:03:31.245Z,39.30
2019-02-28T15:05:40.263Z,41.53
2019-02-28T15:07:44.177Z,41.43
2019-02-28T15:09:48.103Z,44.40
2019-02-28T15:11:51.991Z,44.17
2019-02-28T15:13:55.895Z,44.60
2019-02-28T15:15:59.760Z,43.77
2019-02-28T15:18:03.766Z,42.67
2019-02-28T15:20:11.111Z,42.90
2019-02-28T15:22:17.823Z,42.80
2019-02-28T15:24:20.134Z,42.13
2019-02-28T15:26:26.564Z,34.80
2019-02-28T15:28:29.571Z,43.37
2019-02-28T15:30:38.094Z,41.90
2019-02-28T15:32:41.962Z,42.03
2019-02-28T15:34:45.974Z,41.87
2019-02-28T15:36:49.862Z,42.97
2019-02-28T15:38:53.796Z,41.97
2019-02-28T15:40:58.766Z,43.13
2019-02-28T15:43:03.215Z,41.93
2019-02-28T15:45:09.726Z,42.03
2019-02-28T15:47:13.565Z,41.03
2019-02-28T15:49:17.480Z,43.50
2019-02-28T15:51:21.412Z,43.73
2019-02-28T15:53:25.283Z,41.50
2019-02-28T15:55:29.397Z,43.70
2019-02-28T15:57:33.297Z,42.63
2019-02-28T15:59:37.191Z,43.10
2019-02-28T16:01:41.049Z,42.57
2019-02-28T16:03:45.106Z,44.67
2019-02-28T16:05:49.954Z,44.17
2019-02-28T16:07:54.647Z,43.13
2019-02-28T16:09:58.542Z,40.40
2019-02-28T16:12:02.462Z,43.17
2019-02-28T16:14:14.291Z,44.10
2019-02-28T16:16:11.884Z,42.87
2019-02-28T16:18:15.766Z,43.97
2019-02-28T16:20:19.631Z,39.80
2019-02-28T16:22:23.514Z,40.73
2019-02-28T16:24:27.403Z,44.50
2019-02-28T16:26:31.287Z,41.07
2019-02-28T16:28:35.196Z,42.33
2019-02-28T16:30:40.074Z,39.33
2019-02-28T16:32:45.547Z,40.13
2019-02-28T16:34:49.463Z,40.07
2019-02-28T16:36:53.386Z,42.13
2019-02-28T16:38:57.240Z,42.83
2019-02-28T16:41:01.545Z,44.47
2019-02-28T16:43:05.412Z,40.63
2019-02-28T16:45:37.419Z,40.70
2019-02-28T16:47:42.522Z,39.47
2019-02-28T16:49:46.402Z,38.10
2019-02-28T16:51:50.352Z,37.87
2019-02-28T16:53:54.194Z,38.47
2019-02-28T16:55:58.057Z,34.40
2019-02-28T16:58:02.012Z,38.67
2019-02-28T17:00:09.502Z,38.50
2019-02-28T17:02:13.386Z,41.10
2019-02-28T17:04:18.056Z,41.10
2019-02-28T17:06:22.074Z,39.50
2019-02-28T17:08:27.497Z,40.67
2019-02-28T17:10:33.013Z,41.90
2019-02-28T17:12:54.926Z,41.17
2019-02-28T17:14:58.826Z,41.97
2019-02-28T17:17:04.295Z,40.20
2019-02-28T17:19:08.608Z,37.67
2019-02-28T17:21:16.695Z,40.20
2019-02-28T17:23:18.750Z,42.50
2019-02-28T17:25:22.814Z,40.47
2019-02-28T17:27:28.277Z,43.37
2019-02-28T17:29:36.400Z,39.93
2019-02-28T17:31:48.204Z,39.13
2019-02-28T17:33:53.180Z,37.03
2019-02-28T17:35:57.048Z,34.70
2019-02-28T17:38:01.064Z,37.90
2019-02-28T17:40:07.921Z,40.63
2019-02-28T17:42:14.847Z,39.40
2019-02-28T17:44:26.536Z,39.50
2019-02-28T17:46:30.374Z,42.27
2019-02-28T17:48:48.727Z,42.17
2019-02-28T17:50:54.573Z,43.30
2019-02-28T17:53:11.020Z,41.83
2019-02-28T17:55:42.384Z,41.70
2019-02-28T17:57:57.618Z,44.13
2019-02-28T18:00:05.899Z,40.70
2019-02-28T18:02:21.473Z,42.77
2019-02-28T18:04:37.142Z,43.67
2019-02-28T18:06:49.793Z,43.70
2019-02-28T18:09:14.543Z,42.47
2019-02-28T18:11:40.939Z,42.20
2019-02-28T18:13:55.258Z,44.77
2019-02-28T18:16:26.015Z,42.80
2019-02-28T18:18:56.338Z,46.63
2019-02-28T18:21:17.454Z,46.63
2019-02-28T18:24:00.218Z,51.33
2019-02-28T18:26:15.924Z,49.37
2019-02-28T18:28:23.631Z,52.70
2019-02-28T18:30:53.245Z,52.87
2019-02-28T18:32:57.139Z,49.50
2019-02-28T18:35:01.021Z,51.87
2019-02-28T18:37:05.026Z,51.50
2019-02-28T18:39:11.599Z,46.60
2019-02-28T18:41:15.143Z,45.47
2019-02-28T18:43:19.010Z,49.53
2019-02-28T18:45:23.428Z,33.60
2019-02-28T18:47:27.314Z,50.60
2019-02-28T18:49:31.218Z,49.90
2019-02-28T18:51:35.101Z,54.07
2019-02-28T18:53:38.970Z,51.37
2019-02-28T18:55:42.874Z,47.47
2019-02-28T18:57:46.742Z,49.83
2019-02-28T18:59:50.634Z,49.57
2019-02-28T19:01:54.531Z,48.27
2019-02-28T19:03:58.441Z,51.87
2019-02-28T19:06:02.301Z,51.73
2019-02-28T19:08:06.187Z,50.33
2019-02-28T19:10:10.866Z,51.07
2019-02-28T19:12:14.815Z,53.93
2019-02-28T19:14:18.694Z,51.50
2019-02-28T19:16:22.582Z,50.17
2019-02-28T19:18:26.478Z,49.17
2019-02-28T19:20:30.343Z,47.23
2019-02-28T19:22:35.481Z,47.73
2019-02-28T19:24:39.512Z,39.73
2019-02-28T19:26:43.374Z,48.60
2019-02-28T19:28:47.259Z,46.23
2019-02-28T19:30:51.163Z,40.50
2019-02-28T19:32:55.103Z,42.17
2019-02-28T19:34:59.021Z,41.83
2019-02-28T19:37:02.891Z,36.87
2019-02-28T19:39:07.710Z,35.83
2019-02-28T19:41:11.633Z,38.50
2019-02-28T19:43:15.549Z,36.27
2019-02-28T19:45:28.261Z,37.43
2019-02-28T19:47:32.115Z,34.40
2019-02-28T19:49:36.064Z,34.30
2019-02-28T19:51:40.460Z,34.63
2019-02-28T19:53:44.614Z,34.87
2019-02-28T19:55:48.541Z,33.03
2019-02-28T19:57:52.488Z,32.87
2019-02-28T19:59:56.324Z,35.23
2019-02-28T20:02:00.235Z,34.17
2019-02-28T20:04:04.098Z,34.73
2019-02-28T20:06:08.106Z,34.37
2019-02-28T20:08:11.944Z,35.20
2019-02-28T20:10:20.342Z,33.23
2019-02-28T20:12:24.269Z,36.27
2019-02-28T20:14:28.135Z,34.97
2019-02-28T20:16:32.114Z,33.80
2019-02-28T20:18:36.073Z,35.17
2019-02-28T20:20:39.969Z,36.07
2019-02-28T20:22:43.897Z,36.20
2019-02-28T20:24:47.742Z,35.87
2019-02-28T20:26:51.687Z,34.47
2019-02-28T20:28:55.624Z,35.30
2019-02-28T20:30:59.479Z,36.13
2019-02-28T20:33:03.374Z,37.67
2019-02-28T20:35:08.796Z,36.77
2019-02-28T20:37:12.720Z,38.10
2019-02-28T20:39:16.589Z,37.20
2019-02-28T20:41:20.708Z,35.27
2019-02-28T20:43:24.626Z,38.17
2019-02-28T20:45:28.574Z,37.73
2019-02-28T20:47:32.425Z,37.50
2019-02-28T20:49:36.334Z,34.57
2019-02-28T20:51:41.298Z,32.03
2019-02-28T20:53:45.188Z,35.47
2019-02-28T20:55:49.075Z,32.30
2019-02-28T20:57:52.975Z,34.90
2019-02-28T20:59:56.963Z,33.43
2019-02-28T21:02:00.826Z,32.97
2019-02-28T21:04:04.691Z,33.80
2019-02-28T21:06:08.581Z,34.57
2019-02-28T21:08:12.481Z,33.47
2019-02-28T21:10:16.449Z,31.20
2019-02-28T21:12:20.457Z,36.47
2019-02-28T21:14:24.319Z,33.43
2019-02-28T21:16:28.182Z,32.90
2019-02-28T21:18:32.121Z,32.93
2019-02-28T21:20:36.023Z,34.00
2019-02-28T21:22:39.945Z,31.53
2019-02-28T21:24:43.805Z,32.70
2019-02-28T21:26:47.738Z,33.33
2019-02-28T21:28:51.596Z,33.57
2019-02-28T21:30:55.489Z,32.30
2019-02-28T21:32:59.434Z,31.60
2019-02-28T21:35:03.269Z,33.83
2019-02-28T21:37:07.217Z,30.43
2019-02-28T21:39:11.106Z,31.53
2019-02-28T21:41:15.202Z,31.67
2019-02-28T21:43:19.089Z,34.33
2019-02-28T21:45:27.585Z,37.33
2019-02-28T21:47:31.465Z,33.03
2019-02-28T21:49:35.443Z,32.47
2019-02-28T21:51:39.345Z,32.53
2019-02-28T21:53:43.248Z,34.87
2019-02-28T21:55:47.132Z,35.13
2019-02-28T21:57:51.072Z,36.20
2019-02-28T21:59:55.006Z,34.50
2019-02-28T22:01:58.951Z,31.90
2019-02-28T22:04:03.212Z,29.67
2019-02-28T22:06:07.099Z,31.53
2019-02-28T22:08:10.950Z,30.27
2019-02-28T22:10:17.978Z,31.57
2019-02-28T22:12:21.873Z,19.80
2019-02-28T22:14:25.907Z,18.33
2019-02-28T22:16:29.823Z,31.47
2019-02-28T22:18:33.718Z,32.03
2019-02-28T22:20:37.593Z,30.87
2019-02-28T22:22:41.521Z,32.33
2019-02-28T22:24:46.606Z,33.97
2019-02-28T22:26:50.500Z,31.13
2019-02-28T22:28:54.394Z,33.57
2019-02-28T22:31:03.691Z,38.17
2019-02-28T22:33:14.854Z,33.10
2019-02-28T22:35:20.977Z,36.83
2019-02-28T22:37:25.622Z,40.60
2019-02-28T22:39:29.504Z,36.77
2019-02-28T22:41:33.353Z,33.43
2019-02-28T22:43:37.210Z,33.23
2019-02-28T22:45:41.096Z,31.70
2019-02-28T22:47:44.942Z,31.47
2019-02-28T22:49:48.883Z,31.23
2019-02-28T22:51:53.039Z,28.87
2019-02-28T22:53:57.336Z,30.97
2019-02-28T22:56:01.235Z,30.77
2019-02-28T22:58:12.203Z,32.73
2019-02-28T23:00:38.840Z,32.60
2019-02-28T23:02:44.082Z,29.67
2019-02-28T23:04:47.962Z,32.97
2019-02-28T23:06:51.851Z,31.57
2019-02-28T23:08:55.721Z,29.53
2019-02-28T23:10:59.736Z,31.07
2019-02-28T23:13:03.653Z,31.10
2019-02-28T23:15:08.554Z,31.73
2019-02-28T23:17:12.474Z,33.03
2019-02-28T23:19:16.420Z,34.50
2019-02-28T23:21:20.285Z,33.43
2019-02-28T23:23:24.229Z,29.53
2019-02-28T23:25:28.120Z,31.37
2019-02-28T23:27:33.849Z,25.60
2019-02-28T23:29:37.873Z,19.60
2019-02-28T23:32:01.210Z,22.60
2019-02-28T23:34:13.970Z,25.63
2019-02-28T23:36:17.869Z,34.83
2019-02-28T23:38:23.960Z,28.80
2019-02-28T23:40:27.784Z,35.87
2019-02-28T23:42:31.785Z,33.27
2019-02-28T23:44:36.375Z,31.67
2019-02-28T23:46:40.222Z,35.33
2019-02-28T23:48:44.126Z,35.10
2019-02-28T23:50:49.269Z,37.37
2019-02-28T23:52:53.286Z,33.67
2019-02-28T23:54:57.204Z,29.97
2019-02-28T23:57:01.562Z,35.43
2019-02-28T23:59:07.175Z,34.27
